Terminal Aerodrome Forecast
Issued by NWS Cleveland, OH

Home | Current Version | Previous Version | Graphics & Text | Print | Product List | Glossary On
Versions: 1 2 3 4 5 6 7 8 9 10 11 12 13 14 15 16
000
FTUS41 KCLE 241120
TAFERI
TAF
KERI 241120Z 2412/2512 18015G25KT P6SM OVC060
      TEMPO 2412/2416 -SHRA
     FM241700 23015G25KT P6SM OVC250
     FM250000 23010KT P6SM OVC035
     FM250300 23010KT P6SM OVC025
     FM250700 22009KT P6SM OVC015=

USA.gov is the U.S. government's official web portal to all federal, state and local government web resources and services.